sensor_id;sensor_type;location;lat;lon;timestamp;temperature;humidity
13898;DHT22;7019;50.766;4.474;2022-09-03T00:01:27;17.50;99.90
13898;DHT22;7019;50.766;4.474;2022-09-03T00:03:57;17.50;99.90
13898;DHT22;7019;50.766;4.474;2022-09-03T00:06:31;17.50;99.90
13898;DHT22;7019;50.766;4.474;2022-09-03T00:09:06;17.50;99.90
13898;DHT22;7019;50.766;4.474;2022-09-03T00:11:42;17.50;99.90
13898;DHT22;7019;50.766;4.474;2022-09-03T00:14:16;17.50;99.90
13898;DHT22;7019;50.766;4.474;2022-09-03T00:16:49;17.50;99.90
13898;DHT22;7019;50.766;4.474;2022-09-03T00:19:31;17.50;99.90
13898;DHT22;7019;50.766;4.474;2022-09-03T00:22:03;17.50;99.90
13898;DHT22;7019;50.766;4.474;2022-09-03T00:24:35;17.50;99.90
13898;DHT22;7019;50.766;4.474;2022-09-03T00:27:06;17.60;99.90
13898;DHT22;7019;50.766;4.474;2022-09-03T00:29:42;17.60;99.90
13898;DHT22;7019;50.766;4.474;2022-09-03T00:32:15;17.70;99.90
13898;DHT22;7019;50.766;4.474;2022-09-03T00:34:46;17.70;99.90
13898;DHT22;7019;50.766;4.474;2022-09-03T00:37:16;17.60;99.90
13898;DHT22;7019;50.766;4.474;2022-09-03T00:39:43;17.60;99.90
13898;DHT22;7019;50.766;4.474;2022-09-03T00:42:27;17.60;99.90
13898;DHT22;7019;50.766;4.474;2022-09-03T00:45:07;17.60;99.90
13898;DHT22;7019;50.766;4.474;2022-09-03T00:47:41;17.50;99.90
13898;DHT22;7019;50.766;4.474;2022-09-03T00:50:18;17.60;99.90
13898;DHT22;7019;50.766;4.474;2022-09-03T00:52:56;17.50;99.90
13898;DHT22;7019;50.766;4.474;2022-09-03T00:55:33;17.60;99.90
13898;DHT22;7019;50.766;4.474;2022-09-03T00:58:24;17.50;99.90
13898;DHT22;7019;50.766;4.474;2022-09-03T01:01:06;17.40;99.90
13898;DHT22;7019;50.766;4.474;2022-09-03T01:03:40;17.40;99.90
13898;DHT22;7019;50.766;4.474;2022-09-03T01:06:16;17.40;99.90
13898;DHT22;7019;50.766;4.474;2022-09-03T01:09:11;17.40;99.90
13898;DHT22;7019;50.766;4.474;2022-09-03T01:11:50;17.40;99.90
13898;DHT22;7019;50.766;4.474;2022-09-03T01:14:30;17.30;99.90
13898;DHT22;7019;50.766;4.474;2022-09-03T01:17:10;17.30;99.90
13898;DHT22;7019;50.766;4.474;2022-09-03T01:19:57;17.40;99.90
13898;DHT22;7019;50.766;4.474;2022-09-03T01:22:55;17.40;99.90
13898;DHT22;7019;50.766;4.474;2022-09-03T01:25:37;17.40;99.90
13898;DHT22;7019;50.766;4.474;2022-09-03T01:28:22;17.30;99.90
13898;DHT22;7019;50.766;4.474;2022-09-03T01:31:04;17.30;99.90
13898;DHT22;7019;50.766;4.474;2022-09-03T01:33:39;17.30;99.90
13898;DHT22;7019;50.766;4.474;2022-09-03T01:36:18;17.20;99.90
13898;DHT22;7019;50.766;4.474;2022-09-03T01:38:54;17.20;99.90
13898;DHT22;7019;50.766;4.474;2022-09-03T01:41:28;17.20;99.90
13898;DHT22;7019;50.766;4.474;2022-09-03T01:44:23;17.20;99.90
13898;DHT22;7019;50.766;4.474;2022-09-03T05:32:38;16.50;99.90
13898;DHT22;7019;50.766;4.474;2022-09-03T05:35:06;16.50;99.90
13898;DHT22;7019;50.766;4.474;2022-09-03T05:37:33;16.50;99.90
13898;DHT22;7019;50.766;4.474;2022-09-03T05:40:00;16.60;99.90
13898;DHT22;7019;50.766;4.474;2022-09-03T05:42:27;16.60;99.90
13898;DHT22;7019;50.766;4.474;2022-09-03T05:44:56;16.70;99.90
13898;DHT22;7019;50.766;4.474;2022-09-03T05:47:24;16.70;99.90
13898;DHT22;7019;50.766;4.474;2022-09-03T05:49:52;16.90;99.90
13898;DHT22;7019;50.766;4.474;2022-09-03T05:52:19;16.90;99.90
13898;DHT22;7019;50.766;4.474;2022-09-03T05:54:48;17.00;99.90
13898;DHT22;7019;50.766;4.474;2022-09-03T05:57:15;17.00;99.90
13898;DHT22;7019;50.766;4.474;2022-09-03T05:59:41;16.90;99.90
13898;DHT22;7019;50.766;4.474;2022-09-03T06:02:08;16.80;99.90
13898;DHT22;7019;50.766;4.474;2022-09-03T06:04:35;16.80;99.90
13898;DHT22;7019;50.766;4.474;2022-09-03T06:07:04;16.90;99.90
13898;DHT22;7019;50.766;4.474;2022-09-03T06:09:31;17.00;99.90
13898;DHT22;7019;50.766;4.474;2022-09-03T06:11:58;17.10;99.90
13898;DHT22;7019;50.766;4.474;2022-09-03T06:14:25;17.20;99.90
13898;DHT22;7019;50.766;4.474;2022-09-03T06:16:52;17.30;99.90
13898;DHT22;7019;50.766;4.474;2022-09-03T06:19:20;17.40;99.90
13898;DHT22;7019;50.766;4.474;2022-09-03T06:21:47;17.40;99.90
13898;DHT22;7019;50.766;4.474;2022-09-03T06:24:17;17.30;99.90
13898;DHT22;7019;50.766;4.474;2022-09-03T06:26:44;17.30;99.90
13898;DHT22;7019;50.766;4.474;2022-09-03T06:29:12;17.40;99.90
13898;DHT22;7019;50.766;4.474;2022-09-03T06:31:39;17.40;99.90
13898;DHT22;7019;50.766;4.474;2022-09-03T06:34:06;17.40;99.90
13898;DHT22;7019;50.766;4.474;2022-09-03T06:36:33;17.30;99.90
13898;DHT22;7019;50.766;4.474;2022-09-03T06:39:01;17.40;99.90
13898;DHT22;7019;50.766;4.474;2022-09-03T06:41:30;17.40;99.90
13898;DHT22;7019;50.766;4.474;2022-09-03T06:44:01;17.50;99.90
13898;DHT22;7019;50.766;4.474;2022-09-03T06:46:30;17.50;99.90
13898;DHT22;7019;50.766;4.474;2022-09-03T06:48:57;17.60;99.90
13898;DHT22;7019;50.766;4.474;2022-09-03T06:51:26;17.50;99.90
13898;DHT22;7019;50.766;4.474;2022-09-03T06:53:59;17.50;99.90
13898;DHT22;7019;50.766;4.474;2022-09-03T06:56:27;17.40;99.90
13898;DHT22;7019;50.766;4.474;2022-09-03T06:58:56;17.50;99.90
13898;DHT22;7019;50.766;4.474;2022-09-03T07:01:25;17.60;99.90
13898;DHT22;7019;50.766;4.474;2022-09-03T07:03:53;17.70;99.90
13898;DHT22;7019;50.766;4.474;2022-09-03T07:06:22;18.00;99.90
13898;DHT22;7019;50.766;4.474;2022-09-03T07:08:50;18.10;99.90
13898;DHT22;7019;50.766;4.474;2022-09-03T07:11:19;18.10;99.90
13898;DHT22;7019;50.766;4.474;2022-09-03T07:13:50;18.20;99.90
13898;DHT22;7019;50.766;4.474;2022-09-03T07:16:21;18.20;99.90
13898;DHT22;7019;50.766;4.474;2022-09-03T07:18:49;18.20;99.90
13898;DHT22;7019;50.766;4.474;2022-09-03T07:21:18;18.30;99.90
13898;DHT22;7019;50.766;4.474;2022-09-03T07:23:45;18.40;99.90
13898;DHT22;7019;50.766;4.474;2022-09-03T07:26:15;18.40;99.90
13898;DHT22;7019;50.766;4.474;2022-09-03T07:28:43;18.40;99.90
13898;DHT22;7019;50.766;4.474;2022-09-03T07:31:13;18.30;99.90
13898;DHT22;7019;50.766;4.474;2022-09-03T07:33:41;18.30;99.90
13898;DHT22;7019;50.766;4.474;2022-09-03T07:36:10;18.40;99.90
13898;DHT22;7019;50.766;4.474;2022-09-03T07:38:39;18.50;99.90
13898;DHT22;7019;50.766;4.474;2022-09-03T07:41:08;18.70;99.90
13898;DHT22;7019;50.766;4.474;2022-09-03T07:43:37;18.90;99.90
13898;DHT22;7019;50.766;4.474;2022-09-03T07:46:05;19.10;99.90
13898;DHT22;7019;50.766;4.474;2022-09-03T07:48:33;19.40;99.90
13898;DHT22;7019;50.766;4.474;2022-09-03T07:51:01;19.50;99.90
13898;DHT22;7019;50.766;4.474;2022-09-03T07:53:28;19.50;99.90
13898;DHT22;7019;50.766;4.474;2022-09-03T07:56:01;19.60;99.90
13898;DHT22;7019;50.766;4.474;2022-09-03T07:58:28;19.60;99.90
13898;DHT22;7019;50.766;4.474;2022-09-03T08:00:56;19.90;99.90
13898;DHT22;7019;50.766;4.474;2022-09-03T08:03:23;20.30;99.90
13898;DHT22;7019;50.766;4.474;2022-09-03T08:05:50;21.10;99.90
13898;DHT22;7019;50.766;4.474;2022-09-03T08:08:19;22.30;99.90
13898;DHT22;7019;50.766;4.474;2022-09-03T08:10:46;23.20;99.90
13898;DHT22;7019;50.766;4.474;2022-09-03T08:13:13;23.90;99.90
13898;DHT22;7019;50.766;4.474;2022-09-03T08:15:40;24.30;99.90
13898;DHT22;7019;50.766;4.474;2022-09-03T08:18:07;24.70;99.90
13898;DHT22;7019;50.766;4.474;2022-09-03T08:20:36;25.20;99.90
13898;DHT22;7019;50.766;4.474;2022-09-03T08:23:03;25.30;99.90
13898;DHT22;7019;50.766;4.474;2022-09-03T08:25:31;25.00;99.90
13898;DHT22;7019;50.766;4.474;2022-09-03T08:27:58;24.70;99.90
13898;DHT22;7019;50.766;4.474;2022-09-03T08:30:26;24.30;99.90
13898;DHT22;7019;50.766;4.474;2022-09-03T08:32:53;24.00;99.90
13898;DHT22;7019;50.766;4.474;2022-09-03T08:35:21;23.50;99.90
13898;DHT22;7019;50.766;4.474;2022-09-03T08:37:48;23.30;99.90
13898;DHT22;7019;50.766;4.474;2022-09-03T08:40:19;23.00;99.90
13898;DHT22;7019;50.766;4.474;2022-09-03T08:43:02;22.90;99.90
13898;DHT22;7019;50.766;4.474;2022-09-03T08:45:35;22.90;99.90
13898;DHT22;7019;50.766;4.474;2022-09-03T08:48:05;23.00;99.90
13898;DHT22;7019;50.766;4.474;2022-09-03T08:50:36;23.00;99.90
13898;DHT22;7019;50.766;4.474;2022-09-03T08:53:10;22.90;99.90
13898;DHT22;7019;50.766;4.474;2022-09-03T08:55:42;22.80;99.90
13898;DHT22;7019;50.766;4.474;2022-09-03T08:58:16;22.80;99.90
13898;DHT22;7019;50.766;4.474;2022-09-03T09:00:48;22.70;99.90
13898;DHT22;7019;50.766;4.474;2022-09-03T09:03:33;22.50;99.90
13898;DHT22;7019;50.766;4.474;2022-09-03T09:06:13;22.50;99.90
13898;DHT22;7019;50.766;4.474;2022-09-03T09:08:51;22.50;99.90
13898;DHT22;7019;50.766;4.474;2022-09-03T09:11:30;22.50;99.90
13898;DHT22;7019;50.766;4.474;2022-09-03T09:14:03;22.50;99.90
13898;DHT22;7019;50.766;4.474;2022-09-03T09:16:37;22.50;99.90
13898;DHT22;7019;50.766;4.474;2022-09-03T09:19:17;22.50;99.90
13898;DHT22;7019;50.766;4.474;2022-09-03T09:21:49;22.40;99.90
13898;DHT22;7019;50.766;4.474;2022-09-03T09:24:21;22.40;99.90
13898;DHT22;7019;50.766;4.474;2022-09-03T09:26:49;22.30;99.90
13898;DHT22;7019;50.766;4.474;2022-09-03T09:29:19;22.40;99.90
13898;DHT22;7019;50.766;4.474;2022-09-03T09:31:46;22.40;99.90
13898;DHT22;7019;50.766;4.474;2022-09-03T09:34:14;22.60;99.90
13898;DHT22;7019;50.766;4.474;2022-09-03T09:36:44;22.70;99.90
13898;DHT22;7019;50.766;4.474;2022-09-03T09:39:12;22.70;99.90
13898;DHT22;7019;50.766;4.474;2022-09-03T09:41:41;22.70;99.90
13898;DHT22;7019;50.766;4.474;2022-09-03T09:44:19;22.60;99.90
13898;DHT22;7019;50.766;4.474;2022-09-03T09:46:46;22.50;99.90
13898;DHT22;7019;50.766;4.474;2022-09-03T09:49:28;22.40;99.90
13898;DHT22;7019;50.766;4.474;2022-09-03T09:52:07;22.50;99.90
13898;DHT22;7019;50.766;4.474;2022-09-03T09:54:37;22.40;99.90
13898;DHT22;7019;50.766;4.474;2022-09-03T09:57:06;22.40;99.90
13898;DHT22;7019;50.766;4.474;2022-09-03T09:59:34;22.40;99.90
13898;DHT22;7019;50.766;4.474;2022-09-03T10:02:10;22.40;99.90
13898;DHT22;7019;50.766;4.474;2022-09-03T10:04:38;22.40;99.90
13898;DHT22;7019;50.766;4.474;2022-09-03T10:07:21;22.40;99.90
13898;DHT22;7019;50.766;4.474;2022-09-03T10:10:01;22.60;99.90
13898;DHT22;7019;50.766;4.474;2022-09-03T10:12:31;22.80;99.90
13898;DHT22;7019;50.766;4.474;2022-09-03T10:15:11;23.00;99.90
13898;DHT22;7019;50.766;4.474;2022-09-03T10:17:46;23.30;99.90
13898;DHT22;7019;50.766;4.474;2022-09-03T10:20:23;23.50;99.90
13898;DHT22;7019;50.766;4.474;2022-09-03T10:23:06;24.00;99.90
13898;DHT22;7019;50.766;4.474;2022-09-03T10:25:43;24.50;99.90
13898;DHT22;7019;50.766;4.474;2022-09-03T10:28:24;25.00;99.90
13898;DHT22;7019;50.766;4.474;2022-09-03T10:31:07;25.30;99.90
13898;DHT22;7019;50.766;4.474;2022-09-03T10:33:55;25.90;99.90
13898;DHT22;7019;50.766;4.474;2022-09-03T10:36:33;25.90;99.90
13898;DHT22;7019;50.766;4.474;2022-09-03T10:39:04;26.00;99.90
13898;DHT22;7019;50.766;4.474;2022-09-03T10:41:42;25.90;99.90
13898;DHT22;7019;50.766;4.474;2022-09-03T10:47:28;25.60;99.90
13898;DHT22;7019;50.766;4.474;2022-09-03T10:50:03;25.40;99.90
13898;DHT22;7019;50.766;4.474;2022-09-03T10:52:55;25.50;99.90
13898;DHT22;7019;50.766;4.474;2022-09-03T10:55:28;25.60;99.90
13898;DHT22;7019;50.766;4.474;2022-09-03T10:58:06;25.90;99.90
13898;DHT22;7019;50.766;4.474;2022-09-03T11:00:41;26.20;99.90
13898;DHT22;7019;50.766;4.474;2022-09-03T11:03:35;26.20;99.90
13898;DHT22;7019;50.766;4.474;2022-09-03T11:06:10;26.30;99.90
13898;DHT22;7019;50.766;4.474;2022-09-03T11:08:41;26.60;99.90
13898;DHT22;7019;50.766;4.474;2022-09-03T11:11:14;26.70;99.90
13898;DHT22;7019;50.766;4.474;2022-09-03T11:13:47;26.80;99.90
13898;DHT22;7019;50.766;4.474;2022-09-03T11:16:21;26.80;99.90
13898;DHT22;7019;50.766;4.474;2022-09-03T11:18:54;26.70;99.90
13898;DHT22;7019;50.766;4.474;2022-09-03T11:21:23;26.40;99.90
13898;DHT22;7019;50.766;4.474;2022-09-03T11:23:57;26.00;99.90
13898;DHT22;7019;50.766;4.474;2022-09-03T11:26:29;25.80;99.90
13898;DHT22;7019;50.766;4.474;2022-09-03T11:28:58;25.60;99.90
13898;DHT22;7019;50.766;4.474;2022-09-03T11:31:35;25.50;99.90
13898;DHT22;7019;50.766;4.474;2022-09-03T11:34:10;25.40;99.90
13898;DHT22;7019;50.766;4.474;2022-09-03T11:36:39;25.40;99.90
13898;DHT22;7019;50.766;4.474;2022-09-03T11:39:17;25.50;99.90
13898;DHT22;7019;50.766;4.474;2022-09-03T11:41:56;25.80;99.90
13898;DHT22;7019;50.766;4.474;2022-09-03T11:44:23;26.20;99.90
13898;DHT22;7019;50.766;4.474;2022-09-03T11:46:55;26.40;99.90
13898;DHT22;7019;50.766;4.474;2022-09-03T11:49:29;26.60;99.90
13898;DHT22;7019;50.766;4.474;2022-09-03T11:51:59;26.80;99.90
13898;DHT22;7019;50.766;4.474;2022-09-03T11:54:27;26.30;99.90
13898;DHT22;7019;50.766;4.474;2022-09-03T11:57:12;26.40;99.90
13898;DHT22;7019;50.766;4.474;2022-09-03T11:59:41;26.50;99.90
13898;DHT22;7019;50.766;4.474;2022-09-03T12:02:27;26.60;99.90
13898;DHT22;7019;50.766;4.474;2022-09-03T12:05:11;27.10;99.90
13898;DHT22;7019;50.766;4.474;2022-09-03T12:08:03;27.20;99.90
13898;DHT22;7019;50.766;4.474;2022-09-03T12:10:40;27.00;99.90
13898;DHT22;7019;50.766;4.474;2022-09-03T12:13:24;26.70;99.90
13898;DHT22;7019;50.766;4.474;2022-09-03T12:16:05;26.70;99.90
13898;DHT22;7019;50.766;4.474;2022-09-03T12:18:35;26.70;99.90
13898;DHT22;7019;50.766;4.474;2022-09-03T12:21:06;27.20;99.90
13898;DHT22;7019;50.766;4.474;2022-09-03T12:23:38;27.60;99.90
13898;DHT22;7019;50.766;4.474;2022-09-03T12:26:08;27.70;99.90
13898;DHT22;7019;50.766;4.474;2022-09-03T12:28:40;27.60;99.90
13898;DHT22;7019;50.766;4.474;2022-09-03T12:31:09;27.40;99.90
13898;DHT22;7019;50.766;4.474;2022-09-03T12:33:45;27.10;99.90
13898;DHT22;7019;50.766;4.474;2022-09-03T12:36:14;27.00;99.90
13898;DHT22;7019;50.766;4.474;2022-09-03T12:38:41;27.00;99.90
13898;DHT22;7019;50.766;4.474;2022-09-03T12:41:20;27.00;99.90
13898;DHT22;7019;50.766;4.474;2022-09-03T12:43:50;26.90;99.90
13898;DHT22;7019;50.766;4.474;2022-09-03T12:46:22;26.90;99.90
13898;DHT22;7019;50.766;4.474;2022-09-03T12:48:54;26.80;99.90
13898;DHT22;7019;50.766;4.474;2022-09-03T12:51:23;26.90;99.90
13898;DHT22;7019;50.766;4.474;2022-09-03T12:53:51;26.90;99.90
13898;DHT22;7019;50.766;4.474;2022-09-03T12:56:20;26.80;99.90
13898;DHT22;7019;50.766;4.474;2022-09-03T12:58:50;26.70;99.90
13898;DHT22;7019;50.766;4.474;2022-09-03T13:01:24;26.60;99.90
13898;DHT22;7019;50.766;4.474;2022-09-03T13:04:01;26.40;99.90
13898;DHT22;7019;50.766;4.474;2022-09-03T13:06:33;26.40;99.90
13898;DHT22;7019;50.766;4.474;2022-09-03T13:09:07;26.50;99.90
13898;DHT22;7019;50.766;4.474;2022-09-03T13:11:35;26.50;99.90
13898;DHT22;7019;50.766;4.474;2022-09-03T13:14:03;26.60;99.90
13898;DHT22;7019;50.766;4.474;2022-09-03T13:16:50;26.70;99.90
13898;DHT22;7019;50.766;4.474;2022-09-03T13:19:26;27.00;99.90
13898;DHT22;7019;50.766;4.474;2022-09-03T13:22:05;27.40;99.90
13898;DHT22;7019;50.766;4.474;2022-09-03T13:24:52;27.30;99.90
13898;DHT22;7019;50.766;4.474;2022-09-03T13:27:26;27.30;99.90
13898;DHT22;7019;50.766;4.474;2022-09-03T13:30:02;27.30;99.90
13898;DHT22;7019;50.766;4.474;2022-09-03T13:32:37;27.30;99.90
13898;DHT22;7019;50.766;4.474;2022-09-03T13:35:11;27.40;99.90
13898;DHT22;7019;50.766;4.474;2022-09-03T13:37:44;27.20;99.90
13898;DHT22;7019;50.766;4.474;2022-09-03T13:40:15;26.90;99.90
13898;DHT22;7019;50.766;4.474;2022-09-03T13:42:50;26.80;99.90
13898;DHT22;7019;50.766;4.474;2022-09-03T13:45:27;26.90;99.90
13898;DHT22;7019;50.766;4.474;2022-09-03T13:47:59;26.90;99.90
13898;DHT22;7019;50.766;4.474;2022-09-03T13:50:49;26.90;99.90
13898;DHT22;7019;50.766;4.474;2022-09-03T13:53:30;26.80;99.90
13898;DHT22;7019;50.766;4.474;2022-09-03T13:56:05;26.80;99.90
13898;DHT22;7019;50.766;4.474;2022-09-03T13:58:43;26.70;99.90
13898;DHT22;7019;50.766;4.474;2022-09-03T14:01:16;26.60;99.90
13898;DHT22;7019;50.766;4.474;2022-09-03T14:03:49;26.60;99.90
13898;DHT22;7019;50.766;4.474;2022-09-03T14:06:25;26.50;99.90
13898;DHT22;7019;50.766;4.474;2022-09-03T14:09:05;26.30;99.90
13898;DHT22;7019;50.766;4.474;2022-09-03T14:11:48;26.00;99.90
13898;DHT22;7019;50.766;4.474;2022-09-03T14:14:29;25.80;99.90
13898;DHT22;7019;50.766;4.474;2022-09-03T14:17:02;25.60;99.90
13898;DHT22;7019;50.766;4.474;2022-09-03T14:19:35;25.50;99.90
13898;DHT22;7019;50.766;4.474;2022-09-03T14:22:07;25.50;99.90
13898;DHT22;7019;50.766;4.474;2022-09-03T14:24:45;25.60;99.90
13898;DHT22;7019;50.766;4.474;2022-09-03T14:27:21;25.80;99.90
13898;DHT22;7019;50.766;4.474;2022-09-03T14:29:52;26.00;99.90
13898;DHT22;7019;50.766;4.474;2022-09-03T14:32:31;26.10;99.90
13898;DHT22;7019;50.766;4.474;2022-09-03T14:35:20;26.20;99.90
13898;DHT22;7019;50.766;4.474;2022-09-03T14:38:17;26.40;99.90
13898;DHT22;7019;50.766;4.474;2022-09-03T14:40:54;26.40;99.90
13898;DHT22;7019;50.766;4.474;2022-09-03T14:43:33;26.20;99.90
13898;DHT22;7019;50.766;4.474;2022-09-03T14:46:13;26.20;99.90
13898;DHT22;7019;50.766;4.474;2022-09-03T14:49:14;26.10;99.90
13898;DHT22;7019;50.766;4.474;2022-09-03T14:51:58;26.10;99.90
13898;DHT22;7019;50.766;4.474;2022-09-03T14:54:42;26.30;99.90
13898;DHT22;7019;50.766;4.474;2022-09-03T14:57:31;26.30;99.90
13898;DHT22;7019;50.766;4.474;2022-09-03T15:00:06;26.40;99.90
13898;DHT22;7019;50.766;4.474;2022-09-03T15:05:46;26.50;99.90
13898;DHT22;7019;50.766;4.474;2022-09-03T15:08:23;26.30;99.90
13898;DHT22;7019;50.766;4.474;2022-09-03T15:10:58;26.00;99.90
13898;DHT22;7019;50.766;4.474;2022-09-03T15:13:29;25.70;99.90
13898;DHT22;7019;50.766;4.474;2022-09-03T15:16:07;25.60;99.90
13898;DHT22;7019;50.766;4.474;2022-09-03T15:18:54;25.30;99.90
13898;DHT22;7019;50.766;4.474;2022-09-03T15:21:36;25.20;99.90
13898;DHT22;7019;50.766;4.474;2022-09-03T15:24:10;25.10;99.90
13898;DHT22;7019;50.766;4.474;2022-09-03T15:26:55;25.00;99.90
13898;DHT22;7019;50.766;4.474;2022-09-03T15:29:51;25.00;99.90
13898;DHT22;7019;50.766;4.474;2022-09-03T15:32:35;25.00;99.90
13898;DHT22;7019;50.766;4.474;2022-09-03T15:35:07;25.20;99.90
13898;DHT22;7019;50.766;4.474;2022-09-03T15:37:51;25.40;99.90
13898;DHT22;7019;50.766;4.474;2022-09-03T15:40:27;25.50;99.90
13898;DHT22;7019;50.766;4.474;2022-09-03T15:43:01;25.60;99.90
13898;DHT22;7019;50.766;4.474;2022-09-03T15:45:51;25.70;99.90
13898;DHT22;7019;50.766;4.474;2022-09-03T15:48:29;25.80;99.90
13898;DHT22;7019;50.766;4.474;2022-09-03T15:51:07;25.90;99.90
13898;DHT22;7019;50.766;4.474;2022-09-03T15:53:40;26.10;99.90
13898;DHT22;7019;50.766;4.474;2022-09-03T15:56:16;26.30;99.90
13898;DHT22;7019;50.766;4.474;2022-09-03T15:58:49;26.50;99.90
13898;DHT22;7019;50.766;4.474;2022-09-03T16:01:29;26.40;99.90
13898;DHT22;7019;50.766;4.474;2022-09-03T16:04:03;26.30;99.90
13898;DHT22;7019;50.766;4.474;2022-09-03T16:06:44;26.20;99.90
13898;DHT22;7019;50.766;4.474;2022-09-03T16:09:28;26.00;99.90
13898;DHT22;7019;50.766;4.474;2022-09-03T16:12:03;25.80;99.90
13898;DHT22;7019;50.766;4.474;2022-09-03T16:14:38;25.60;99.90
13898;DHT22;7019;50.766;4.474;2022-09-03T16:17:17;25.30;99.90
13898;DHT22;7019;50.766;4.474;2022-09-03T16:19:53;25.10;99.90
13898;DHT22;7019;50.766;4.474;2022-09-03T16:22:26;24.80;99.90
13898;DHT22;7019;50.766;4.474;2022-09-03T16:24:59;24.70;99.90
13898;DHT22;7019;50.766;4.474;2022-09-03T16:27:29;24.80;99.90
13898;DHT22;7019;50.766;4.474;2022-09-03T16:30:01;24.80;99.90
13898;DHT22;7019;50.766;4.474;2022-09-03T16:32:46;24.80;99.90
13898;DHT22;7019;50.766;4.474;2022-09-03T16:35:26;24.70;99.90
13898;DHT22;7019;50.766;4.474;2022-09-03T16:38:09;24.50;99.90
13898;DHT22;7019;50.766;4.474;2022-09-03T16:40:43;24.40;99.90
13898;DHT22;7019;50.766;4.474;2022-09-03T16:43:23;24.20;99.90
13898;DHT22;7019;50.766;4.474;2022-09-03T16:46:03;24.20;99.90
13898;DHT22;7019;50.766;4.474;2022-09-03T16:48:38;24.10;99.90
13898;DHT22;7019;50.766;4.474;2022-09-03T16:51:15;24.00;99.90
13898;DHT22;7019;50.766;4.474;2022-09-03T16:53:59;23.90;99.90
13898;DHT22;7019;50.766;4.474;2022-09-03T16:56:43;23.80;99.90
13898;DHT22;7019;50.766;4.474;2022-09-03T16:59:23;23.60;99.90
13898;DHT22;7019;50.766;4.474;2022-09-03T17:02:05;23.40;99.90
13898;DHT22;7019;50.766;4.474;2022-09-03T17:05:02;23.30;99.90
13898;DHT22;7019;50.766;4.474;2022-09-03T17:07:45;23.10;99.90
13898;DHT22;7019;50.766;4.474;2022-09-03T17:10:24;23.00;99.90
13898;DHT22;7019;50.766;4.474;2022-09-03T17:13:01;22.90;99.90
13898;DHT22;7019;50.766;4.474;2022-09-03T17:15:36;22.80;99.90
13898;DHT22;7019;50.766;4.474;2022-09-03T17:18:29;22.80;99.90
13898;DHT22;7019;50.766;4.474;2022-09-03T17:21:21;22.70;99.90
13898;DHT22;7019;50.766;4.474;2022-09-03T17:24:19;22.60;99.90
13898;DHT22;7019;50.766;4.474;2022-09-03T17:26:59;22.60;99.90
13898;DHT22;7019;50.766;4.474;2022-09-03T17:29:45;22.50;99.90
13898;DHT22;7019;50.766;4.474;2022-09-03T17:32:26;22.40;99.90
13898;DHT22;7019;50.766;4.474;2022-09-03T17:35:05;22.40;99.90
13898;DHT22;7019;50.766;4.474;2022-09-03T17:37:48;22.40;99.90
13898;DHT22;7019;50.766;4.474;2022-09-03T17:40:27;22.40;99.90
13898;DHT22;7019;50.766;4.474;2022-09-03T17:43:05;22.30;99.90
13898;DHT22;7019;50.766;4.474;2022-09-03T17:45:44;22.30;99.90
13898;DHT22;7019;50.766;4.474;2022-09-03T17:48:22;22.20;99.90
13898;DHT22;7019;50.766;4.474;2022-09-03T17:50:55;22.10;99.90
13898;DHT22;7019;50.766;4.474;2022-09-03T17:53:31;22.00;99.90
13898;DHT22;7019;50.766;4.474;2022-09-03T17:56:02;21.90;99.90
13898;DHT22;7019;50.766;4.474;2022-09-03T17:58:33;21.70;99.90
13898;DHT22;7019;50.766;4.474;2022-09-03T18:01:11;21.60;99.90
13898;DHT22;7019;50.766;4.474;2022-09-03T18:03:44;21.50;99.90
13898;DHT22;7019;50.766;4.474;2022-09-03T18:06:23;21.30;99.90
13898;DHT22;7019;50.766;4.474;2022-09-03T18:08:57;21.20;99.90
13898;DHT22;7019;50.766;4.474;2022-09-03T18:11:30;21.20;99.90
13898;DHT22;7019;50.766;4.474;2022-09-03T18:14:10;21.10;99.90
13898;DHT22;7019;50.766;4.474;2022-09-03T18:16:46;21.00;99.90
13898;DHT22;7019;50.766;4.474;2022-09-03T18:19:27;21.00;99.90
13898;DHT22;7019;50.766;4.474;2022-09-03T18:21:58;20.90;99.90
13898;DHT22;7019;50.766;4.474;2022-09-03T18:24:56;20.90;99.90
13898;DHT22;7019;50.766;4.474;2022-09-03T18:27:44;20.80;99.90
13898;DHT22;7019;50.766;4.474;2022-09-03T18:30:33;20.70;99.90
13898;DHT22;7019;50.766;4.474;2022-09-03T18:33:21;20.60;99.90
13898;DHT22;7019;50.766;4.474;2022-09-03T18:36:06;20.40;99.90
13898;DHT22;7019;50.766;4.474;2022-09-03T18:38:51;20.40;99.90
13898;DHT22;7019;50.766;4.474;2022-09-03T18:41:55;20.30;99.90
13898;DHT22;7019;50.766;4.474;2022-09-03T18:44:51;20.30;99.90
13898;DHT22;7019;50.766;4.474;2022-09-03T18:47:48;20.20;99.90
13898;DHT22;7019;50.766;4.474;2022-09-03T18:50:42;20.20;99.90
13898;DHT22;7019;50.766;4.474;2022-09-03T18:53:34;20.20;99.90
13898;DHT22;7019;50.766;4.474;2022-09-03T18:56:28;20.20;99.90
13898;DHT22;7019;50.766;4.474;2022-09-03T19:02:47;20.20;99.90
13898;DHT22;7019;50.766;4.474;2022-09-03T19:05:44;20.20;99.90
13898;DHT22;7019;50.766;4.474;2022-09-03T19:08:36;20.20;99.90
13898;DHT22;7019;50.766;4.474;2022-09-03T19:11:28;20.30;99.90
13898;DHT22;7019;50.766;4.474;2022-09-03T19:14:22;20.30;99.90
13898;DHT22;7019;50.766;4.474;2022-09-03T19:17:14;20.30;99.90
13898;DHT22;7019;50.766;4.474;2022-09-03T19:20:04;20.20;99.90
13898;DHT22;7019;50.766;4.474;2022-09-03T19:22:52;20.00;99.90
13898;DHT22;7019;50.766;4.474;2022-09-03T19:25:36;19.90;99.90
13898;DHT22;7019;50.766;4.474;2022-09-03T19:28:22;19.90;99.90
13898;DHT22;7019;50.766;4.474;2022-09-03T19:31:34;19.80;99.90
13898;DHT22;7019;50.766;4.474;2022-09-03T19:34:40;19.80;99.90
13898;DHT22;7019;50.766;4.474;2022-09-03T19:37:32;19.70;99.90
13898;DHT22;7019;50.766;4.474;2022-09-03T19:40:37;19.60;99.90
13898;DHT22;7019;50.766;4.474;2022-09-03T19:43:31;19.50;99.90
13898;DHT22;7019;50.766;4.474;2022-09-03T19:46:31;19.40;99.90
13898;DHT22;7019;50.766;4.474;2022-09-03T19:49:22;19.20;99.90
13898;DHT22;7019;50.766;4.474;2022-09-03T19:52:22;19.20;99.90
13898;DHT22;7019;50.766;4.474;2022-09-03T19:55:11;19.20;99.90
13898;DHT22;7019;50.766;4.474;2022-09-03T19:58:00;19.10;99.90
13898;DHT22;7019;50.766;4.474;2022-09-03T20:00:44;19.00;99.90
13898;DHT22;7019;50.766;4.474;2022-09-03T20:03:31;18.90;99.90
13898;DHT22;7019;50.766;4.474;2022-09-03T20:06:15;18.80;99.90
13898;DHT22;7019;50.766;4.474;2022-09-03T20:09:05;18.70;99.90
13898;DHT22;7019;50.766;4.474;2022-09-03T20:11:52;18.60;99.90
13898;DHT22;7019;50.766;4.474;2022-09-03T20:14:20;18.60;99.90
13898;DHT22;7019;50.766;4.474;2022-09-03T20:16:58;18.60;99.90
13898;DHT22;7019;50.766;4.474;2022-09-03T20:19:35;18.60;99.90
13898;DHT22;7019;50.766;4.474;2022-09-03T20:22:11;18.50;99.90
13898;DHT22;7019;50.766;4.474;2022-09-03T20:24:49;18.40;99.90
13898;DHT22;7019;50.766;4.474;2022-09-03T20:27:33;18.30;99.90
13898;DHT22;7019;50.766;4.474;2022-09-03T20:30:05;18.30;99.90
13898;DHT22;7019;50.766;4.474;2022-09-03T20:35:55;18.10;99.90
13898;DHT22;7019;50.766;4.474;2022-09-03T20:41:23;18.00;99.90
13898;DHT22;7019;50.766;4.474;2022-09-03T20:44:10;18.00;99.90
13898;DHT22;7019;50.766;4.474;2022-09-03T20:46:53;18.00;99.90